sensor_id;sensor_type;location;lat;lon;timestamp;temperature;humidity
429;DHT22;201;48.758;9.290;2023-04-25T00:01:36;8.60;2.30
429;DHT22;201;48.758;9.290;2023-04-25T00:04:03;8.60;1.00
429;DHT22;201;48.758;9.290;2023-04-25T00:06:31;8.50;1.00
429;DHT22;201;48.758;9.290;2023-04-25T00:08:57;8.50;1.00
429;DHT22;201;48.758;9.290;2023-04-25T00:11:23;8.40;1.00
429;DHT22;201;48.758;9.290;2023-04-25T00:13:49;8.40;1.00
429;DHT22;201;48.758;9.290;2023-04-25T00:16:16;8.40;1.00
429;DHT22;201;48.758;9.290;2023-04-25T00:18:42;8.60;1.00
429;DHT22;201;48.758;9.290;2023-04-25T00:21:08;8.70;1.00
429;DHT22;201;48.758;9.290;2023-04-25T00:23:34;8.70;1.00
429;DHT22;201;48.758;9.290;2023-04-25T00:26:02;8.70;1.00
429;DHT22;201;48.758;9.290;2023-04-25T00:28:27;8.70;1.00
429;DHT22;201;48.758;9.290;2023-04-25T00:30:53;8.80;1.00
429;DHT22;201;48.758;9.290;2023-04-25T00:33:19;8.80;1.00
429;DHT22;201;48.758;9.290;2023-04-25T00:35:44;8.80;1.00
429;DHT22;201;48.758;9.290;2023-04-25T00:38:10;8.80;1.20
429;DHT22;201;48.758;9.290;2023-04-25T00:40:35;8.80;1.00
429;DHT22;201;48.758;9.290;2023-04-25T00:43:01;8.80;1.00
429;DHT22;201;48.758;9.290;2023-04-25T00:45:28;8.80;1.00
429;DHT22;201;48.758;9.290;2023-04-25T00:47:54;8.80;1.00
429;DHT22;201;48.758;9.290;2023-04-25T00:50:20;8.60;1.00
429;DHT22;201;48.758;9.290;2023-04-25T00:52:46;8.60;1.00
429;DHT22;201;48.758;9.290;2023-04-25T00:55:12;8.50;1.00
429;DHT22;201;48.758;9.290;2023-04-25T00:57:38;8.40;1.00
429;DHT22;201;48.758;9.290;2023-04-25T01:00:05;8.40;1.00
429;DHT22;201;48.758;9.290;2023-04-25T01:02:33;8.50;1.00
429;DHT22;201;48.758;9.290;2023-04-25T01:04:58;8.60;1.00
429;DHT22;201;48.758;9.290;2023-04-25T01:07:24;8.60;1.00
429;DHT22;201;48.758;9.290;2023-04-25T01:09:51;8.70;1.00
429;DHT22;201;48.758;9.290;2023-04-25T01:12:17;8.70;1.00
429;DHT22;201;48.758;9.290;2023-04-25T01:14:43;8.70;1.00
429;DHT22;201;48.758;9.290;2023-04-25T01:17:10;8.70;1.00
429;DHT22;201;48.758;9.290;2023-04-25T01:19:35;8.70;1.00
429;DHT22;201;48.758;9.290;2023-04-25T01:22:01;8.70;1.00
429;DHT22;201;48.758;9.290;2023-04-25T01:24:27;8.50;1.00
429;DHT22;201;48.758;9.290;2023-04-25T01:26:54;8.50;1.00
429;DHT22;201;48.758;9.290;2023-04-25T01:29:22;8.40;1.00
429;DHT22;201;48.758;9.290;2023-04-25T01:31:47;8.30;1.00
429;DHT22;201;48.758;9.290;2023-04-25T01:34:13;8.30;1.00
429;DHT22;201;48.758;9.290;2023-04-25T01:36:39;8.30;1.00
429;DHT22;201;48.758;9.290;2023-04-25T01:39:06;8.10;1.40
429;DHT22;201;48.758;9.290;2023-04-25T01:41:33;8.00;1.60
429;DHT22;201;48.758;9.290;2023-04-25T01:44:00;7.90;2.40
429;DHT22;201;48.758;9.290;2023-04-25T01:46:25;7.90;3.00
429;DHT22;201;48.758;9.290;2023-04-25T01:48:51;7.80;3.60
429;DHT22;201;48.758;9.290;2023-04-25T01:51:17;7.80;4.10
429;DHT22;201;48.758;9.290;2023-04-25T01:53:43;7.80;4.20
429;DHT22;201;48.758;9.290;2023-04-25T01:56:08;7.80;4.40
429;DHT22;201;48.758;9.290;2023-04-25T01:58:34;7.90;5.10
429;DHT22;201;48.758;9.290;2023-04-25T02:00:59;7.90;4.50
429;DHT22;201;48.758;9.290;2023-04-25T02:03:25;7.90;4.50
429;DHT22;201;48.758;9.290;2023-04-25T02:05:51;8.00;4.40
429;DHT22;201;48.758;9.290;2023-04-25T02:08:17;7.90;4.40
429;DHT22;201;48.758;9.290;2023-04-25T02:10:43;7.80;4.20
429;DHT22;201;48.758;9.290;2023-04-25T02:13:09;7.70;4.80
429;DHT22;201;48.758;9.290;2023-04-25T02:15:34;7.70;5.10
429;DHT22;201;48.758;9.290;2023-04-25T02:18:00;7.60;5.10
429;DHT22;201;48.758;9.290;2023-04-25T02:20:29;7.60;5.20
429;DHT22;201;48.758;9.290;2023-04-25T02:22:55;7.60;5.30
429;DHT22;201;48.758;9.290;2023-04-25T02:25:21;7.60;4.50
429;DHT22;201;48.758;9.290;2023-04-25T02:27:47;7.60;4.90
429;DHT22;201;48.758;9.290;2023-04-25T02:30:13;7.60;4.20
429;DHT22;201;48.758;9.290;2023-04-25T02:32:39;7.70;4.40
429;DHT22;201;48.758;9.290;2023-04-25T02:35:06;7.80;3.30
429;DHT22;201;48.758;9.290;2023-04-25T02:37:33;7.70;3.20
429;DHT22;201;48.758;9.290;2023-04-25T02:39:59;7.70;3.20
429;DHT22;201;48.758;9.290;2023-04-25T02:42:24;7.80;2.90
429;DHT22;201;48.758;9.290;2023-04-25T02:44:50;7.80;2.90
429;DHT22;201;48.758;9.290;2023-04-25T02:47:15;7.90;2.60
429;DHT22;201;48.758;9.290;2023-04-25T02:49:41;7.90;2.10
429;DHT22;201;48.758;9.290;2023-04-25T02:52:06;7.90;2.00
429;DHT22;201;48.758;9.290;2023-04-25T02:54:32;7.90;1.70
429;DHT22;201;48.758;9.290;2023-04-25T02:56:57;7.90;1.20
429;DHT22;201;48.758;9.290;2023-04-25T02:59:23;7.90;1.20
429;DHT22;201;48.758;9.290;2023-04-25T03:01:48;7.90;1.00
429;DHT22;201;48.758;9.290;2023-04-25T03:04:14;7.70;1.00
429;DHT22;201;48.758;9.290;2023-04-25T03:06:40;7.80;1.00
429;DHT22;201;48.758;9.290;2023-04-25T03:09:05;7.70;1.00
429;DHT22;201;48.758;9.290;2023-04-25T03:11:31;7.70;1.00
429;DHT22;201;48.758;9.290;2023-04-25T03:13:57;7.80;1.00
429;DHT22;201;48.758;9.290;2023-04-25T03:16:23;7.90;1.00
429;DHT22;201;48.758;9.290;2023-04-25T03:18:48;8.00;1.00
429;DHT22;201;48.758;9.290;2023-04-25T03:21:15;7.90;1.00
429;DHT22;201;48.758;9.290;2023-04-25T03:23:41;7.80;1.00
429;DHT22;201;48.758;9.290;2023-04-25T03:26:06;7.90;1.00
429;DHT22;201;48.758;9.290;2023-04-25T03:28:32;7.80;1.00
429;DHT22;201;48.758;9.290;2023-04-25T03:30:57;7.90;1.00
429;DHT22;201;48.758;9.290;2023-04-25T03:33:23;7.90;1.00
429;DHT22;201;48.758;9.290;2023-04-25T03:35:48;8.10;1.00
429;DHT22;201;48.758;9.290;2023-04-25T03:38:15;8.20;1.00
429;DHT22;201;48.758;9.290;2023-04-25T03:40:40;8.20;1.00
429;DHT22;201;48.758;9.290;2023-04-25T03:43:06;8.30;1.00
429;DHT22;201;48.758;9.290;2023-04-25T03:45:32;8.30;1.00
429;DHT22;201;48.758;9.290;2023-04-25T03:47:57;8.20;1.00
429;DHT22;201;48.758;9.290;2023-04-25T03:50:23;8.20;1.00
429;DHT22;201;48.758;9.290;2023-04-25T03:52:48;8.20;1.00
429;DHT22;201;48.758;9.290;2023-04-25T03:55:14;8.10;1.00
429;DHT22;201;48.758;9.290;2023-04-25T03:57:40;8.10;1.00
429;DHT22;201;48.758;9.290;2023-04-25T04:00:06;7.90;1.00
429;DHT22;201;48.758;9.290;2023-04-25T04:02:32;7.90;1.00
429;DHT22;201;48.758;9.290;2023-04-25T04:04:58;7.90;1.00
429;DHT22;201;48.758;9.290;2023-04-25T04:07:23;7.80;1.00
429;DHT22;201;48.758;9.290;2023-04-25T04:09:49;7.80;1.10
429;DHT22;201;48.758;9.290;2023-04-25T04:12:14;7.80;1.00
429;DHT22;201;48.758;9.290;2023-04-25T04:14:40;7.80;1.00
429;DHT22;201;48.758;9.290;2023-04-25T04:17:06;7.70;1.00
429;DHT22;201;48.758;9.290;2023-04-25T04:19:32;7.70;1.40
429;DHT22;201;48.758;9.290;2023-04-25T04:21:57;7.70;1.50
429;DHT22;201;48.758;9.290;2023-04-25T04:24:23;7.70;1.80
429;DHT22;201;48.758;9.290;2023-04-25T04:26:49;7.80;1.70
429;DHT22;201;48.758;9.290;2023-04-25T04:29:16;7.80;2.10
429;DHT22;201;48.758;9.290;2023-04-25T04:31:49;7.70;1.60
429;DHT22;201;48.758;9.290;2023-04-25T04:34:16;7.70;1.50
429;DHT22;201;48.758;9.290;2023-04-25T04:36:41;7.70;1.60
429;DHT22;201;48.758;9.290;2023-04-25T04:39:07;7.80;2.10
429;DHT22;201;48.758;9.290;2023-04-25T04:41:34;7.80;1.00
429;DHT22;201;48.758;9.290;2023-04-25T04:43:59;7.70;1.50
429;DHT22;201;48.758;9.290;2023-04-25T04:46:26;7.80;1.70
429;DHT22;201;48.758;9.290;2023-04-25T04:48:53;7.80;1.60
429;DHT22;201;48.758;9.290;2023-04-25T04:51:19;8.00;2.30
429;DHT22;201;48.758;9.290;2023-04-25T04:53:44;8.00;1.20
429;DHT22;201;48.758;9.290;2023-04-25T04:56:10;8.10;1.50
429;DHT22;201;48.758;9.290;2023-04-25T04:58:36;8.20;1.80
429;DHT22;201;48.758;9.290;2023-04-25T05:01:02;8.40;1.30
429;DHT22;201;48.758;9.290;2023-04-25T05:03:28;8.60;1.00
429;DHT22;201;48.758;9.290;2023-04-25T05:05:53;8.70;1.00
429;DHT22;201;48.758;9.290;2023-04-25T05:08:19;8.80;1.00
429;DHT22;201;48.758;9.290;2023-04-25T05:10:44;8.80;1.20
429;DHT22;201;48.758;9.290;2023-04-25T05:13:10;8.80;1.00
429;DHT22;201;48.758;9.290;2023-04-25T05:15:35;8.80;1.00
429;DHT22;201;48.758;9.290;2023-04-25T05:18:01;8.70;1.00
429;DHT22;201;48.758;9.290;2023-04-25T05:20:26;8.70;1.00
429;DHT22;201;48.758;9.290;2023-04-25T05:22:52;8.80;1.00
429;DHT22;201;48.758;9.290;2023-04-25T05:25:17;8.80;1.00
429;DHT22;201;48.758;9.290;2023-04-25T05:27:43;8.80;1.00
429;DHT22;201;48.758;9.290;2023-04-25T05:30:09;8.80;1.00
429;DHT22;201;48.758;9.290;2023-04-25T05:32:34;8.80;1.00
429;DHT22;201;48.758;9.290;2023-04-25T05:35:01;8.90;1.00
429;DHT22;201;48.758;9.290;2023-04-25T05:37:26;9.00;1.00
429;DHT22;201;48.758;9.290;2023-04-25T05:39:52;9.10;1.00
429;DHT22;201;48.758;9.290;2023-04-25T05:42:18;9.20;1.00
429;DHT22;201;48.758;9.290;2023-04-25T05:44:44;9.20;1.00
429;DHT22;201;48.758;9.290;2023-04-25T05:47:10;9.10;1.00
429;DHT22;201;48.758;9.290;2023-04-25T05:49:35;9.00;1.00
429;DHT22;201;48.758;9.290;2023-04-25T05:52:01;9.00;1.00
429;DHT22;201;48.758;9.290;2023-04-25T05:54:26;9.00;1.00
429;DHT22;201;48.758;9.290;2023-04-25T05:56:52;9.00;1.00
429;DHT22;201;48.758;9.290;2023-04-25T05:59:17;9.10;1.00
429;DHT22;201;48.758;9.290;2023-04-25T06:01:42;9.20;1.00
429;DHT22;201;48.758;9.290;2023-04-25T06:04:08;9.40;1.00
429;DHT22;201;48.758;9.290;2023-04-25T06:06:34;9.60;1.00
429;DHT22;201;48.758;9.290;2023-04-25T06:08:59;9.50;1.00
429;DHT22;201;48.758;9.290;2023-04-25T06:11:25;9.40;1.00
429;DHT22;201;48.758;9.290;2023-04-25T06:13:51;9.30;1.00
429;DHT22;201;48.758;9.290;2023-04-25T06:16:16;9.20;1.00
429;DHT22;201;48.758;9.290;2023-04-25T06:18:42;9.00;1.00
429;DHT22;201;48.758;9.290;2023-04-25T06:21:07;8.90;1.00
429;DHT22;201;48.758;9.290;2023-04-25T06:23:33;8.90;1.00
429;DHT22;201;48.758;9.290;2023-04-25T06:25:58;8.90;1.00
429;DHT22;201;48.758;9.290;2023-04-25T06:28:24;9.00;1.00
429;DHT22;201;48.758;9.290;2023-04-25T06:30:50;9.10;1.00
429;DHT22;201;48.758;9.290;2023-04-25T06:33:15;9.10;1.00
429;DHT22;201;48.758;9.290;2023-04-25T06:35:41;9.10;1.00
429;DHT22;201;48.758;9.290;2023-04-25T06:38:06;9.20;1.00
429;DHT22;201;48.758;9.290;2023-04-25T06:40:32;9.30;1.00
429;DHT22;201;48.758;9.290;2023-04-25T06:42:58;9.40;1.00
429;DHT22;201;48.758;9.290;2023-04-25T06:45:23;9.50;1.00
429;DHT22;201;48.758;9.290;2023-04-25T06:47:49;9.40;1.00
429;DHT22;201;48.758;9.290;2023-04-25T06:50:14;9.60;1.00
429;DHT22;201;48.758;9.290;2023-04-25T06:52:40;9.60;1.00
429;DHT22;201;48.758;9.290;2023-04-25T06:55:05;9.70;1.00
429;DHT22;201;48.758;9.290;2023-04-25T06:57:31;9.60;1.00
429;DHT22;201;48.758;9.290;2023-04-25T06:59:57;9.50;1.00
429;DHT22;201;48.758;9.290;2023-04-25T07:02:22;9.40;1.00
429;DHT22;201;48.758;9.290;2023-04-25T07:04:48;9.40;1.00
429;DHT22;201;48.758;9.290;2023-04-25T07:07:13;9.40;1.00
429;DHT22;201;48.758;9.290;2023-04-25T07:09:39;9.40;1.00
429;DHT22;201;48.758;9.290;2023-04-25T07:12:04;9.30;1.00
429;DHT22;201;48.758;9.290;2023-04-25T07:14:30;9.40;1.00
429;DHT22;201;48.758;9.290;2023-04-25T07:16:56;9.40;1.00
429;DHT22;201;48.758;9.290;2023-04-25T07:19:22;9.40;1.00
429;DHT22;201;48.758;9.290;2023-04-25T07:21:49;9.40;1.00
429;DHT22;201;48.758;9.290;2023-04-25T07:24:14;9.20;1.00
429;DHT22;201;48.758;9.290;2023-04-25T07:26:40;9.10;1.00
429;DHT22;201;48.758;9.290;2023-04-25T07:29:05;9.00;1.00
429;DHT22;201;48.758;9.290;2023-04-25T07:31:31;9.00;1.00
429;DHT22;201;48.758;9.290;2023-04-25T07:33:56;9.00;1.00
429;DHT22;201;48.758;9.290;2023-04-25T07:36:22;9.00;1.00
429;DHT22;201;48.758;9.290;2023-04-25T07:38:47;8.90;1.00
429;DHT22;201;48.758;9.290;2023-04-25T07:41:13;9.00;1.00
429;DHT22;201;48.758;9.290;2023-04-25T07:43:38;9.00;1.00
429;DHT22;201;48.758;9.290;2023-04-25T07:46:04;9.00;1.20
429;DHT22;201;48.758;9.290;2023-04-25T07:48:30;9.00;1.00
429;DHT22;201;48.758;9.290;2023-04-25T07:50:55;8.90;1.30
429;DHT22;201;48.758;9.290;2023-04-25T07:53:21;8.90;2.80
429;DHT22;201;48.758;9.290;2023-04-25T07:55:47;9.00;2.60
429;DHT22;201;48.758;9.290;2023-04-25T07:58:12;9.00;2.00
429;DHT22;201;48.758;9.290;2023-04-25T08:00:39;9.00;1.70
429;DHT22;201;48.758;9.290;2023-04-25T08:03:04;9.10;2.10
429;DHT22;201;48.758;9.290;2023-04-25T08:05:30;9.10;2.00
429;DHT22;201;48.758;9.290;2023-04-25T08:07:55;9.00;1.20
429;DHT22;201;48.758;9.290;2023-04-25T08:10:22;8.80;2.00
429;DHT22;201;48.758;9.290;2023-04-25T08:12:48;8.70;2.20
429;DHT22;201;48.758;9.290;2023-04-25T08:15:13;8.50;3.00
429;DHT22;201;48.758;9.290;2023-04-25T08:17:39;8.20;4.00
429;DHT22;201;48.758;9.290;2023-04-25T08:20:05;8.20;5.20
429;DHT22;201;48.758;9.290;2023-04-25T08:22:31;8.30;6.40
429;DHT22;201;48.758;9.290;2023-04-25T08:24:57;8.40;6.20
429;DHT22;201;48.758;9.290;2023-04-25T08:27:22;8.50;6.00
429;DHT22;201;48.758;9.290;2023-04-25T08:29:49;8.50;6.20
429;DHT22;201;48.758;9.290;2023-04-25T08:32:15;8.60;6.20
429;DHT22;201;48.758;9.290;2023-04-25T08:34:40;8.60;6.40
429;DHT22;201;48.758;9.290;2023-04-25T08:37:08;8.60;6.00
429;DHT22;201;48.758;9.290;2023-04-25T08:39:35;8.50;5.60
429;DHT22;201;48.758;9.290;2023-04-25T08:42:02;8.50;6.20
429;DHT22;201;48.758;9.290;2023-04-25T08:44:33;8.50;6.70
429;DHT22;201;48.758;9.290;2023-04-25T08:46:58;8.50;6.50
429;DHT22;201;48.758;9.290;2023-04-25T08:49:25;8.60;6.70
429;DHT22;201;48.758;9.290;2023-04-25T08:51:52;8.60;6.90
429;DHT22;201;48.758;9.290;2023-04-25T08:54:21;8.50;6.10
429;DHT22;201;48.758;9.290;2023-04-25T08:56:50;8.40;5.90
429;DHT22;201;48.758;9.290;2023-04-25T08:59:16;8.40;6.10
429;DHT22;201;48.758;9.290;2023-04-25T09:01:42;8.40;6.50
429;DHT22;201;48.758;9.290;2023-04-25T09:04:08;8.40;6.90
429;DHT22;201;48.758;9.290;2023-04-25T09:06:34;8.40;7.30
429;DHT22;201;48.758;9.290;2023-04-25T09:09:08;8.30;7.60
429;DHT22;201;48.758;9.290;2023-04-25T09:11:35;8.20;7.60
429;DHT22;201;48.758;9.290;2023-04-25T09:14:11;8.10;8.30
429;DHT22;201;48.758;9.290;2023-04-25T09:19:23;8.30;9.10
429;DHT22;201;48.758;9.290;2023-04-25T09:21:50;8.30;9.10
429;DHT22;201;48.758;9.290;2023-04-25T09:24:16;8.30;9.10
429;DHT22;201;48.758;9.290;2023-04-25T09:26:44;8.30;9.10
429;DHT22;201;48.758;9.290;2023-04-25T09:29:10;8.10;8.90
429;DHT22;201;48.758;9.290;2023-04-25T09:31:36;8.10;9.00
429;DHT22;201;48.758;9.290;2023-04-25T09:34:02;7.90;8.90
429;DHT22;201;48.758;9.290;2023-04-25T09:36:29;7.90;9.40
429;DHT22;201;48.758;9.290;2023-04-25T09:38:55;8.00;10.50
429;DHT22;201;48.758;9.290;2023-04-25T09:41:24;8.00;10.30
429;DHT22;201;48.758;9.290;2023-04-25T09:43:50;8.00;10.40
429;DHT22;201;48.758;9.290;2023-04-25T09:46:16;8.00;11.00
429;DHT22;201;48.758;9.290;2023-04-25T09:48:49;7.90;10.40
429;DHT22;201;48.758;9.290;2023-04-25T09:51:15;7.90;11.00
429;DHT22;201;48.758;9.290;2023-04-25T09:53:46;7.90;10.80
429;DHT22;201;48.758;9.290;2023-04-25T09:56:15;8.00;11.40
429;DHT22;201;48.758;9.290;2023-04-25T09:58:41;8.10;11.70
429;DHT22;201;48.758;9.290;2023-04-25T10:01:09;8.10;11.40
429;DHT22;201;48.758;9.290;2023-04-25T10:03:39;8.10;11.40
429;DHT22;201;48.758;9.290;2023-04-25T10:06:08;8.20;12.10
429;DHT22;201;48.758;9.290;2023-04-25T10:08:36;8.20;11.60
429;DHT22;201;48.758;9.290;2023-04-25T10:11:03;8.20;11.20
429;DHT22;201;48.758;9.290;2023-04-25T10:13:30;8.10;10.70
429;DHT22;201;48.758;9.290;2023-04-25T10:16:00;8.00;10.60
429;DHT22;201;48.758;9.290;2023-04-25T10:18:27;7.90;10.80
429;DHT22;201;48.758;9.290;2023-04-25T10:20:59;7.80;10.70
429;DHT22;201;48.758;9.290;2023-04-25T10:23:25;7.70;11.00
429;DHT22;201;48.758;9.290;2023-04-25T10:25:52;7.40;10.70
429;DHT22;201;48.758;9.290;2023-04-25T10:28:18;7.30;10.90
429;DHT22;201;48.758;9.290;2023-04-25T10:31:00;7.10;11.00
429;DHT22;201;48.758;9.290;2023-04-25T10:33:33;7.10;12.60
429;DHT22;201;48.758;9.290;2023-04-25T10:36:09;7.10;12.80
429;DHT22;201;48.758;9.290;2023-04-25T10:38:36;7.20;13.50
429;DHT22;201;48.758;9.290;2023-04-25T10:41:09;7.10;13.80
429;DHT22;201;48.758;9.290;2023-04-25T10:43:40;7.30;14.40
429;DHT22;201;48.758;9.290;2023-04-25T10:46:18;7.40;14.10
429;DHT22;201;48.758;9.290;2023-04-25T10:48:52;7.40;14.00
429;DHT22;201;48.758;9.290;2023-04-25T10:51:33;7.30;13.20
429;DHT22;201;48.758;9.290;2023-04-25T10:54:04;7.30;12.20
429;DHT22;201;48.758;9.290;2023-04-25T10:56:37;7.30;11.00
429;DHT22;201;48.758;9.290;2023-04-25T10:59:12;7.20;11.70
429;DHT22;201;48.758;9.290;2023-04-25T11:01:39;7.20;12.30
429;DHT22;201;48.758;9.290;2023-04-25T11:04:05;7.30;12.80
429;DHT22;201;48.758;9.290;2023-04-25T11:06:53;7.20;13.10
429;DHT22;201;48.758;9.290;2023-04-25T11:09:23;7.20;13.70
429;DHT22;201;48.758;9.290;2023-04-25T11:11:58;7.20;13.50
429;DHT22;201;48.758;9.290;2023-04-25T11:14:26;7.20;13.50
429;DHT22;201;48.758;9.290;2023-04-25T11:16:56;6.90;13.50
429;DHT22;201;48.758;9.290;2023-04-25T11:19:22;6.80;13.90
429;DHT22;201;48.758;9.290;2023-04-25T11:21:48;6.60;15.00
429;DHT22;201;48.758;9.290;2023-04-25T11:24:13;6.50;15.30
429;DHT22;201;48.758;9.290;2023-04-25T11:26:42;6.40;14.20
429;DHT22;201;48.758;9.290;2023-04-25T11:29:08;6.40;14.70
429;DHT22;201;48.758;9.290;2023-04-25T11:31:33;6.40;14.30
429;DHT22;201;48.758;9.290;2023-04-25T11:33:59;6.50;13.10
429;DHT22;201;48.758;9.290;2023-04-25T11:36:25;6.50;12.00
429;DHT22;201;48.758;9.290;2023-04-25T11:38:52;6.60;12.50
429;DHT22;201;48.758;9.290;2023-04-25T11:41:18;6.70;12.70
429;DHT22;201;48.758;9.290;2023-04-25T11:43:44;6.80;12.10
429;DHT22;201;48.758;9.290;2023-04-25T11:46:10;7.00;11.50
429;DHT22;201;48.758;9.290;2023-04-25T11:48:40;7.10;11.10
429;DHT22;201;48.758;9.290;2023-04-25T11:51:06;7.20;11.50
429;DHT22;201;48.758;9.290;2023-04-25T11:53:31;7.40;10.60
429;DHT22;201;48.758;9.290;2023-04-25T11:55:57;7.60;10.10
429;DHT22;201;48.758;9.290;2023-04-25T11:58:22;7.70;9.50
429;DHT22;201;48.758;9.290;2023-04-25T12:00:48;7.90;9.70
429;DHT22;201;48.758;9.290;2023-04-25T12:03:13;7.90;9.50
429;DHT22;201;48.758;9.290;2023-04-25T12:05:39;8.00;8.90
429;DHT22;201;48.758;9.290;2023-04-25T12:08:12;8.10;8.30
429;DHT22;201;48.758;9.290;2023-04-25T12:10:39;8.20;8.10
429;DHT22;201;48.758;9.290;2023-04-25T12:13:21;8.20;7.20
429;DHT22;201;48.758;9.290;2023-04-25T12:15:48;8.40;5.90
429;DHT22;201;48.758;9.290;2023-04-25T12:18:14;8.40;5.30
429;DHT22;201;48.758;9.290;2023-04-25T12:20:41;8.50;5.40
429;DHT22;201;48.758;9.290;2023-04-25T12:23:06;8.40;6.50
429;DHT22;201;48.758;9.290;2023-04-25T12:25:44;8.50;6.20
429;DHT22;201;48.758;9.290;2023-04-25T12:28:21;8.50;6.30
429;DHT22;201;48.758;9.290;2023-04-25T12:31:07;8.50;5.30
429;DHT22;201;48.758;9.290;2023-04-25T12:33:35;8.70;6.30
429;DHT22;201;48.758;9.290;2023-04-25T12:36:03;8.70;6.50
429;DHT22;201;48.758;9.290;2023-04-25T12:38:40;8.80;5.70
429;DHT22;201;48.758;9.290;2023-04-25T12:41:06;9.00;5.30
429;DHT22;201;48.758;9.290;2023-04-25T12:43:32;9.10;5.60
429;DHT22;201;48.758;9.290;2023-04-25T12:45:58;8.90;2.80
429;DHT22;201;48.758;9.290;2023-04-25T12:48:24;8.50;4.20
429;DHT22;201;48.758;9.290;2023-04-25T12:50:50;8.30;5.20
429;DHT22;201;48.758;9.290;2023-04-25T12:53:22;8.30;6.40
429;DHT22;201;48.758;9.290;2023-04-25T12:55:48;8.30;6.20
429;DHT22;201;48.758;9.290;2023-04-25T12:58:15;8.30;7.40
429;DHT22;201;48.758;9.290;2023-04-25T13:00:40;8.20;7.90
429;DHT22;201;48.758;9.290;2023-04-25T13:03:06;8.10;6.60
429;DHT22;201;48.758;9.290;2023-04-25T13:05:31;8.20;8.30
429;DHT22;201;48.758;9.290;2023-04-25T13:07:57;8.10;5.10
429;DHT22;201;48.758;9.290;2023-04-25T13:10:22;8.10;4.80
429;DHT22;201;48.758;9.290;2023-04-25T13:12:48;8.20;4.30
429;DHT22;201;48.758;9.290;2023-04-25T13:15:14;8.10;4.40
429;DHT22;201;48.758;9.290;2023-04-25T13:17:41;8.20;3.90
429;DHT22;201;48.758;9.290;2023-04-25T13:20:07;8.50;5.90
429;DHT22;201;48.758;9.290;2023-04-25T13:22:34;8.60;2.00
429;DHT22;201;48.758;9.290;2023-04-25T13:25:02;9.00;4.10
429;DHT22;201;48.758;9.290;2023-04-25T13:27:28;9.30;4.40
429;DHT22;201;48.758;9.290;2023-04-25T13:29:54;9.50;2.50
429;DHT22;201;48.758;9.290;2023-04-25T13:32:19;9.50;1.20
429;DHT22;201;48.758;9.290;2023-04-25T13:34:45;9.60;1.50
429;DHT22;201;48.758;9.290;2023-04-25T13:37:11;9.90;1.40
429;DHT22;201;48.758;9.290;2023-04-25T13:39:36;10.20;1.00
429;DHT22;201;48.758;9.290;2023-04-25T13:42:02;10.40;1.00
429;DHT22;201;48.758;9.290;2023-04-25T13:44:27;10.60;1.00
429;DHT22;201;48.758;9.290;2023-04-25T13:46:53;10.60;1.00
429;DHT22;201;48.758;9.290;2023-04-25T13:49:18;10.90;1.00
429;DHT22;201;48.758;9.290;2023-04-25T13:51:44;11.10;1.00
429;DHT22;201;48.758;9.290;2023-04-25T13:54:10;11.40;1.00
429;DHT22;201;48.758;9.290;2023-04-25T13:56:35;11.60;1.00
429;DHT22;201;48.758;9.290;2023-04-25T13:59:01;11.70;1.00
429;DHT22;201;48.758;9.290;2023-04-25T14:01:26;11.70;1.00
429;DHT22;201;48.758;9.290;2023-04-25T14:03:53;11.90;1.00
429;DHT22;201;48.758;9.290;2023-04-25T14:06:19;12.00;1.00
429;DHT22;201;48.758;9.290;2023-04-25T14:08:48;12.00;1.00
429;DHT22;201;48.758;9.290;2023-04-25T14:11:14;12.00;1.00
429;DHT22;201;48.758;9.290;2023-04-25T14:13:40;12.00;1.00
429;DHT22;201;48.758;9.290;2023-04-25T14:16:05;11.80;1.00
429;DHT22;201;48.758;9.290;2023-04-25T14:18:31;11.70;1.00
429;DHT22;201;48.758;9.290;2023-04-25T14:20:56;11.60;1.00
429;DHT22;201;48.758;9.290;2023-04-25T14:23:22;11.70;1.00
429;DHT22;201;48.758;9.290;2023-04-25T14:25:47;11.80;1.00
429;DHT22;201;48.758;9.290;2023-04-25T14:28:13;11.80;1.00
429;DHT22;201;48.758;9.290;2023-04-25T14:30:38;11.70;1.00
429;DHT22;201;48.758;9.290;2023-04-25T14:33:05;11.70;1.00
429;DHT22;201;48.758;9.290;2023-04-25T14:35:30;11.70;1.00
429;DHT22;201;48.758;9.290;2023-04-25T14:37:56;11.60;1.00
429;DHT22;201;48.758;9.290;2023-04-25T14:40:25;11.80;1.00
429;DHT22;201;48.758;9.290;2023-04-25T14:42:50;12.10;1.00
429;DHT22;201;48.758;9.290;2023-04-25T14:45:17;12.20;1.00
429;DHT22;201;48.758;9.290;2023-04-25T14:47:43;12.20;1.00
429;DHT22;201;48.758;9.290;2023-04-25T14:50:09;12.20;1.00
429;DHT22;201;48.758;9.290;2023-04-25T14:52:35;12.40;1.00
429;DHT22;201;48.758;9.290;2023-04-25T14:55:00;12.60;1.00
429;DHT22;201;48.758;9.290;2023-04-25T14:57:34;12.70;1.00
429;DHT22;201;48.758;9.290;2023-04-25T15:00:00;12.50;1.00
429;DHT22;201;48.758;9.290;2023-04-25T15:02:25;12.30;1.00
429;DHT22;201;48.758;9.290;2023-04-25T15:04:51;12.30;1.00
429;DHT22;201;48.758;9.290;2023-04-25T15:07:17;12.10;1.00
429;DHT22;201;48.758;9.290;2023-04-25T15:09:42;11.80;1.00
429;DHT22;201;48.758;9.290;2023-04-25T15:12:08;11.60;1.00
429;DHT22;201;48.758;9.290;2023-04-25T15:14:34;11.50;1.00
429;DHT22;201;48.758;9.290;2023-04-25T15:17:00;11.40;1.00
429;DHT22;201;48.758;9.290;2023-04-25T15:19:26;11.20;1.00
429;DHT22;201;48.758;9.290;2023-04-25T15:21:51;11.50;1.00
429;DHT22;201;48.758;9.290;2023-04-25T15:24:17;12.00;1.00
429;DHT22;201;48.758;9.290;2023-04-25T15:26:43;12.20;1.00
429;DHT22;201;48.758;9.290;2023-04-25T15:29:09;11.80;1.00
429;DHT22;201;48.758;9.290;2023-04-25T15:31:35;11.40;1.00
429;DHT22;201;48.758;9.290;2023-04-25T15:34:01;11.30;1.00
429;DHT22;201;48.758;9.290;2023-04-25T15:36:26;11.20;1.00
429;DHT22;201;48.758;9.290;2023-04-25T15:38:52;11.10;1.00
429;DHT22;201;48.758;9.290;2023-04-25T15:41:17;11.00;1.00
429;DHT22;201;48.758;9.290;2023-04-25T15:43:43;10.90;1.00
429;DHT22;201;48.758;9.290;2023-04-25T15:46:09;10.80;1.00
429;DHT22;201;48.758;9.290;2023-04-25T15:48:34;10.70;1.00
429;DHT22;201;48.758;9.290;2023-04-25T15:51:00;10.90;1.00
429;DHT22;201;48.758;9.290;2023-04-25T15:53:26;11.00;1.00
429;DHT22;201;48.758;9.290;2023-04-25T15:55:51;11.00;1.00
429;DHT22;201;48.758;9.290;2023-04-25T15:58:17;11.10;1.00
429;DHT22;201;48.758;9.290;2023-04-25T16:00:42;11.00;1.00
429;DHT22;201;48.758;9.290;2023-04-25T16:03:09;10.60;1.00
429;DHT22;201;48.758;9.290;2023-04-25T16:05:35;10.40;1.00
429;DHT22;201;48.758;9.290;2023-04-25T16:08:00;10.30;1.00
429;DHT22;201;48.758;9.290;2023-04-25T16:10:26;10.30;1.00
429;DHT22;201;48.758;9.290;2023-04-25T16:12:52;10.30;1.00
429;DHT22;201;48.758;9.290;2023-04-25T16:15:17;10.30;1.00
429;DHT22;201;48.758;9.290;2023-04-25T16:17:43;10.10;1.00
429;DHT22;201;48.758;9.290;2023-04-25T16:20:10;9.90;1.00
429;DHT22;201;48.758;9.290;2023-04-25T16:22:39;9.80;1.00
429;DHT22;201;48.758;9.290;2023-04-25T16:25:05;9.80;1.00
429;DHT22;201;48.758;9.290;2023-04-25T16:27:31;9.70;1.00
429;DHT22;201;48.758;9.290;2023-04-25T16:29:59;9.60;1.00
429;DHT22;201;48.758;9.290;2023-04-25T16:32:24;9.50;1.00
429;DHT22;201;48.758;9.290;2023-04-25T16:34:50;9.50;1.00
429;DHT22;201;48.758;9.290;2023-04-25T16:37:15;9.60;1.00
429;DHT22;201;48.758;9.290;2023-04-25T16:39:41;9.60;1.00
429;DHT22;201;48.758;9.290;2023-04-25T16:42:06;9.70;1.00
429;DHT22;201;48.758;9.290;2023-04-25T16:44:32;9.80;1.00
429;DHT22;201;48.758;9.290;2023-04-25T16:46:57;9.90;1.00
429;DHT22;201;48.758;9.290;2023-04-25T16:49:23;10.00;1.00
429;DHT22;201;48.758;9.290;2023-04-25T16:51:48;9.90;1.00
429;DHT22;201;48.758;9.290;2023-04-25T16:54:14;9.90;1.00
429;DHT22;201;48.758;9.290;2023-04-25T16:56:40;10.00;1.00
429;DHT22;201;48.758;9.290;2023-04-25T16:59:06;10.00;1.00
429;DHT22;201;48.758;9.290;2023-04-25T17:01:31;10.00;1.00